Overview Statistics Trail Chart Weather Telemetry Raw packets
 

This is the latest recevied packets stored in our database for station/object N5EN-9. If no packets are shown the sender has not sent any packets the latest 24 hours.

If you compare the raw packets with similar data from other websites it may differ (especially the path), the reason is that we are not collecting packets from the same APRS-IS servers. Each APRS-IS server performes duplicate filtering, and which packet that is considered to be a duplicate may differ depending on which APRS-IS server you receive your data from.

<< 1 2 >>

1788555556: N5EN-9>APRS,WIDE1-1,qAO,N5EN-10:/205915h2944.31N/09535.00Wk250/020/Temp=104.83/A=000074/Pa=10103/Rh=20.00/batt=7.46 N5EN's Truck

1788555496: N5EN-9>APRS,WIDE1-1,qAO,N5EN-10:/205818h2944.45N/09534.89Wk157/023/Temp=105.10/A=000063/Pa=10102/Rh=21.00/batt=7.37 N5EN's Truck

1788555436: N5EN-9>APRS,WIDE1-1,qAR,WA5DTR-15:/205718h2944.44N/09535.30Wk081/011/Temp=105.24/A=000087/Pa=10102/Rh=20.00/batt=7.47 N5EN's Truck

1788555376: N5EN-9>APRS,WIDE1-1,qAR,WA5DTR-15:/205618h2944.17N/09535.31Wk000/000/Temp=105.57/A=000085/Pa=10104/Rh=21.00/batt=7.37 N5EN's Truck

1788555316: N5EN-9>APRS,WIDE1-1,qAO,N5EN-10:/205518h2944.17N/09535.31Wk000/000/Temp=105.69/A=000087/Pa=10104/Rh=21.00/batt=7.50 N5EN's Truck

1788555196: N5EN-9>APRS,WIDE1-1,qAR,WA5DTR-15:/205318h2943.46N/09535.53Wk357/022/Temp=105.94/A=000073/Pa=10105/Rh=22.00/batt=7.47 N5EN's Truck

1788555136: N5EN-9>APRS,WIDE1-1,qAR,WA5DTR-15:/205218h2942.90N/09535.53Wk000/000/Temp=106.05/A=000081/Pa=10104/Rh=22.00/batt=7.48 N5EN's Truck

1788555076: N5EN-9>APRS,WIDE1-1,qAR,WA5DTR-15:/205118h2942.74N/09535.55Wk088/026/Temp=106.23/A=000061/Pa=10105/Rh=23.00/batt=7.50 N5EN's Truck

1788555017: N5EN-9>APRS,WIDE1-1,qAR,WA5DTR-15:/205019h2942.63N/09535.77Wk359/021/Temp=106.36/A=000039/Pa=10106/Rh=23.00/batt=7.40 N5EN's Truck

1788554958: N5EN-9>APRS,WIDE1-1,qAR,WA5SON-2:/204919h2942.22N/09535.76Wk358/022/Temp=106.54/A=000055/Pa=10103/Rh=24.00/batt=7.47 N5EN's Truck

1788554897: N5EN-9>APRS,WIDE1-1,qAR,WA5DTR-15:/204819h2942.18N/09535.76Wk000/000/Temp=106.66/A=000043/Pa=10105/Rh=25.00/batt=7.54 N5EN's Truck

1788554843: N5EN-9>APRS,WIDE1-1,qAR,WA5DTR-15:/204719h2942.08N/09535.76Wk000/000/Temp=106.75/A=000021/Pa=10105/Rh=24.00/batt=7.51 N5EN's Truck

1788554777: N5EN-9>APRS,WIDE1-1,qAR,WA5DTR-15:/204619h2941.86N/09535.76Wk359/041/Temp=106.86/A=000063/Pa=10103/Rh=27.00/batt=7.53 N5EN's Truck

1788554657: N5EN-9>APRS,WIDE1-1,qAR,KD5SVO-5:/204419h2941.17N/09535.75Wk359/022/Temp=107.06/A=000011/Pa=10105/Rh=27.00/batt=7.50 N5EN's Truck

1788554597: N5EN-9>APRS,WIDE1-1,qAR,KD5SVO-5:/204319h2940.61N/09535.74Wk359/031/Temp=107.17/A=000051/Pa=10103/Rh=30.00/batt=7.54 N5EN's Truck

1788554537: N5EN-9>APRS,WIDE1-1,qAR,KD5SVO-5:/204219h2940.46N/09535.75Wk000/002/Temp=107.20/A=000080/Pa=10104/Rh=30.00/batt=7.38 N5EN's Truck

1788554417: N5EN-9>APRS,WIDE1-1,qAR,KD5SVO-5:/204019h2940.00N/09536.01Wk000/002/Temp=107.24/A=000053/Pa=10104/Rh=34.00/batt=7.57 N5EN's Truck

1788554357: N5EN-9>APRS,WIDE1-1,qAR,KD5SVO-5:/203919h2939.59N/09535.86Wk359/007/Temp=107.24/A=000061/Pa=10104/Rh=37.00/batt=7.69 N5EN's Truck

1788554297: N5EN-9>APRS,WIDE1-1,qAR,WA5DTR-15:/203819h2939.31N/09535.86Wk000/038/Temp=107.24/A=000101/Pa=10102/Rh=42.00/batt=7.56 N5EN's Truck

1788554237: N5EN-9>APRS,WIDE1-1,qAR,WA5DTR-15:/203719h2938.86N/09535.86Wk000/000/Temp=107.11/A=000070/Pa=10104/Rh=46.00/batt=7.60 N5EN's Truck

1788554177: N5EN-9>APRS,WIDE1-1,qAR,WA5DTR-15:/203619h2938.70N/09535.86Wk001/039/Temp=106.95/A=000124/Pa=10102/Rh=48.00/batt=7.62 N5EN's Truck

1788522677: N5EN-9>APRS,WIDE1-1,qAR,WA5DTR-15:/115119h2938.31N/09535.95Wk257/025/Temp=88.56/A=000071/Pa=10107/Rh=39.00/batt=7.59 N5EN's Truck

1788522617: N5EN-9>APRS,WIDE1-1,qAR,KD5SVO-5:/115019h2938.05N/09535.86Wk349/037/Temp=88.48/A=000072/Pa=10106/Rh=40.00/batt=7.63 N5EN's Truck

1788522557: N5EN-9>APRS,WIDE1-1,qAR,WA5DTR-15:/114919h2937.99N/09535.51Wk286/028/Temp=88.39/A=000051/Pa=10108/Rh=41.00/batt=7.60 N5EN's Truck

1788522497: N5EN-9>APRS,WIDE1-1,qAR,WA5DTR-15:/114819h2938.25N/09535.01Wk226/054/Temp=88.30/A=000109/Pa=10102/Rh=41.00/batt=7.72 N5EN's Truck